MMMA/MAM METAR and TAF weather

Enter ICAO airport designator
Station Type Date Time Source
MMMA METAR 2019/12/10 01:40 UTC NOAA

MMMA 100140Z 16006KT 7SM SCT010 23/22 A2980 RMK 8/100 HZY ISOL CI


Station Type Date Time Source
MMMA Decoded METAR 2019/12/10 01:40 UTC NOAA

Matamoros International , Mexico (MMMA) 25-46N 097-32W
Dec 09, 2019 - 08:40 PM EST / 2019.12.10 0140 UTC
Wind: from the SSE (160 degrees) at 7 MPH (6 KT):0
Visibility: 7 mile(s):0
Sky conditions: partly cloudy
Temperature: 73 F (23 C)
Dew Point: 71 F (22 C)
Relative Humidity: 94%
Pressure (altimeter): 29.8 in. Hg (1009 hPa)
ob: MMMA 100140Z 16006KT 7SM SCT010 23/22 A2980 RMK 8/100 HZY ISOL CI
cycle: 1

Station Type Date Time Source
MMMA TAF 2019/12/10 01:44 UTC NOAA

TAF
AMD MMMA 100037Z 1001/1018 16012KT 6SM HZ SCT010 SCT200
FM101200 16008KT 5SM HZ BKN015
TEMPO 1012/1015 3SM BR OVC010
FM101500 33020G30KT 6SM HZ BKN015

Example: see airport list